Time;durP1;ratioP1;P1;durP2;ratioP2;P2;SDS_P1;SDS_P2;PMS_P1;PMS_P2;Temp;Humidity;BMP_temperature;BMP_pressure;BME280_temperature;BME280_humidity;BME280_pressure;Samples;Min_cycle;Max_cycle;Signal;HPM_P1;HPM_P2
2022/12/29 00:01:56;;;;;;;1.80;1.20;;;8.30;68.70;;;;;;4979250;28;20054;-62
2022/12/29 00:04:21;;;;;;;1.88;1.50;;;8.30;68.90;;;;;;4973171;28;20050;-63
2022/12/29 00:06:48;;;;;;;1.67;1.42;;;8.30;68.80;;;;;;4981400;28;20039;-63
2022/12/29 00:09:16;;;;;;;1.63;1.38;;;8.30;68.60;;;;;;4980181;28;20030;-63
2022/12/29 00:11:41;;;;;;;2.53;1.48;;;8.30;68.50;;;;;;4974326;28;20062;-62
2022/12/29 00:16:54;;;;;;;1.73;1.30;;;8.30;68.30;;;;;;4980087;28;20053;-63
2022/12/29 00:36:04;;;;;;;1.63;1.15;;;8.30;67.80;;;;;;4983626;28;20271;-63
2022/12/29 00:44:07;;;;;;;2.30;1.23;;;8.30;68.00;;;;;;4980022;28;20045;-61
2022/12/29 00:46:32;;;;;;;1.70;1.30;;;8.30;68.10;;;;;;4981639;28;20114;-61
2022/12/29 00:51:42;;;;;;;1.65;1.23;;;8.30;68.00;;;;;;4983037;28;20053;-62
2022/12/29 00:54:08;;;;;;;1.25;1.15;;;8.30;68.10;;;;;;4976219;28;20042;-62
2022/12/29 00:56:33;;;;;;;1.42;1.27;;;8.30;68.10;;;;;;4974827;28;20041;-61
2022/12/29 00:59:04;;;;;;;1.08;0.98;;;8.30;68.10;;;;;;4976951;28;20034;-57
2022/12/29 01:01:29;;;;;;;2.22;1.35;;;8.30;68.30;;;;;;4983150;28;20513;-60
2022/12/29 01:03:55;;;;;;;1.20;1.10;;;8.30;68.40;;;;;;4985278;28;20042;-62
2022/12/29 01:06:22;;;;;;;1.85;1.45;;;8.30;68.40;;;;;;4984563;28;20097;-61
2022/12/29 01:10:09;;;;;;;1.70;1.20;;;8.30;68.50;;;;;;4984073;28;20061;-61
2022/12/29 01:11:33;;;;;;;1.88;1.30;;;8.30;68.60;;;;;;4970057;28;20045;-61
2022/12/29 01:13:59;;;;;;;1.55;1.20;;;8.30;68.70;;;;;;4975110;28;20043;-61
2022/12/29 01:16:24;;;;;;;2.45;1.13;;;8.30;68.60;;;;;;4971047;28;20038;-60
2022/12/29 01:18:50;;;;;;;2.03;1.23;;;8.30;68.60;;;;;;4982767;28;20508;-60
2022/12/29 01:21:15;;;;;;;1.48;1.10;;;8.30;68.60;;;;;;4981686;28;20201;-62
2022/12/29 01:23:41;;;;;;;2.45;1.40;;;8.30;68.50;;;;;;4962429;28;20039;-61
2022/12/29 01:26:11;;;;;;;2.03;1.15;;;8.30;68.40;;;;;;4980517;28;20443;-60
2022/12/29 01:28:38;;;;;;;1.60;1.10;;;8.30;68.10;;;;;;4982826;28;20031;-62
2022/12/29 01:31:04;;;;;;;1.63;1.10;;;8.30;68.40;;;;;;4982876;28;20038;-60
2022/12/29 01:33:30;;;;;;;1.92;1.10;;;8.30;68.50;;;;;;4984481;28;20560;-60
2022/12/29 01:36:04;;;;;;;1.58;1.20;;;8.30;68.50;;;;;;4982830;28;20524;-61
2022/12/29 01:38:30;;;;;;;1.20;1.10;;;8.30;68.10;;;;;;4962119;28;20453;-60
2022/12/29 01:40:55;;;;;;;2.25;1.30;;;8.30;68.30;;;;;;4983055;28;20038;-60
2022/12/29 01:43:21;;;;;;;2.15;1.20;;;8.30;68.10;;;;;;4983227;28;20592;-61
2022/12/29 01:45:56;;;;;;;1.58;1.05;;;8.40;68.10;;;;;;4980795;28;20061;-61
2022/12/29 01:48:21;;;;;;;;;;;8.30;67.70;;;;;;4982855;28;20090;-60
2022/12/29 01:50:52;;;;;;;1.17;1.00;;;8.40;67.70;;;;;;4980205;28;20231;-60
2022/12/29 01:53:27;;;;;;;1.38;1.27;;;8.40;68.10;;;;;;4977735;28;20059;-61
2022/12/29 01:55:56;;;;;;;2.83;1.20;;;8.40;67.60;;;;;;4978810;28;20034;-59
2022/12/29 01:58:26;;;;;;;1.73;1.10;;;8.40;67.70;;;;;;4980346;28;20045;-62
2022/12/29 02:00:52;;;;;;;1.30;1.20;;;8.40;67.50;;;;;;4972593;28;20121;-61
2022/12/29 02:03:21;;;;;;;1.20;0.88;;;8.40;67.40;;;;;;4980341;28;20149;-63
2022/12/29 02:06:02;;;;;;;1.30;1.00;;;8.50;67.20;;;;;;4980542;28;20031;-60
2022/12/29 02:08:29;;;;;;;1.58;0.95;;;8.50;66.70;;;;;;4978442;28;20702;-60
2022/12/29 02:10:56;;;;;;;1.35;1.10;;;8.50;67.20;;;;;;4979602;28;20072;-61
2022/12/29 02:13:25;;;;;;;1.83;1.10;;;8.50;66.90;;;;;;4973253;28;20685;-61
2022/12/29 02:16:09;;;;;;;2.33;1.00;;;8.50;66.60;;;;;;4979633;28;20062;-60
2022/12/29 02:18:46;;;;;;;1.30;0.95;;;8.60;66.90;;;;;;4979991;28;20038;-62
2022/12/29 02:21:39;;;;;;;0.90;0.70;;;8.60;66.60;;;;;;4979520;28;20068;-61
2022/12/29 02:24:42;;;;;;;1.00;0.80;;;8.60;66.20;;;;;;4978279;28;20042;-60
2022/12/29 02:27:31;;;;;;;1.02;0.90;;;8.60;65.90;;;;;;4975674;28;20611;-62
2022/12/29 02:30:17;;;;;;;1.00;0.90;;;8.60;66.60;;;;;;4983663;28;20038;-60
2022/12/29 02:32:46;;;;;;;0.90;0.80;;;8.60;66.20;;;;;;4977906;28;20375;-61
2022/12/29 02:35:42;;;;;;;1.48;1.05;;;8.70;66.80;;;;;;4981231;28;20042;-63
2022/12/29 02:38:14;;;;;;;1.65;0.80;;;8.70;66.10;;;;;;4981724;28;20057;-61
2022/12/29 02:41:05;;;;;;;1.75;1.00;;;8.70;66.40;;;;;;4978890;28;20117;-60
2022/12/29 02:44:08;;;;;;;2.42;0.80;;;8.70;65.90;;;;;;4981025;28;20042;-60
2022/12/29 02:46:43;;;;;;;1.08;0.60;;;8.80;65.30;;;;;;4930533;28;20061;-60
2022/12/29 02:49:36;;;;;;;1.05;0.82;;;8.80;65.90;;;;;;4981119;28;20057;-61
2022/12/29 02:52:11;;;;;;;1.10;0.90;;;8.80;65.40;;;;;;4973759;28;20054;-61
2022/12/29 02:54:40;;;;;;;0.90;0.70;;;8.80;66.00;;;;;;4978080;28;20038;-60
2022/12/29 02:57:35;;;;;;;1.30;1.00;;;8.80;67.00;;;;;;4979443;28;20452;-62
2022/12/29 03:00:19;;;;;;;1.60;0.80;;;8.80;65.30;;;;;;4957900;28;20062;-63
2022/12/29 03:02:51;;;;;;;1.70;0.70;;;8.90;65.50;;;;;;4975728;28;20293;-61
2022/12/29 03:05:33;;;;;;;0.77;0.77;;;8.90;66.10;;;;;;4978700;28;20039;-63
2022/12/29 03:08:10;;;;;;;1.48;0.90;;;8.90;65.40;;;;;;4974588;28;20070;-61
2022/12/29 03:12:07;;;;;;;1.73;1.10;;;9.00;65.30;;;;;;4955049;28;20038;-62
2022/12/29 03:16:55;;;;;;;2.05;0.95;;;9.10;65.90;;;;;;4968336;28;20089;-61
2022/12/29 03:19:36;;;;;;;1.10;0.80;;;9.10;65.50;;;;;;4979558;28;20043;-60
2022/12/29 03:25:30;;;;;;;1.67;0.90;;;9.10;65.70;;;;;;4917009;29;20439;-61
2022/12/29 03:28:08;;;;;;;1.33;0.90;;;9.10;65.30;;;;;;4973560;28;20023;-63
2022/12/29 03:30:35;;;;;;;0.82;0.77;;;9.10;65.70;;;;;;4980900;28;20501;-61
2022/12/29 03:33:06;;;;;;;0.88;0.70;;;9.10;65.80;;;;;;4979805;28;20056;-60
2022/12/29 03:35:36;;;;;;;1.10;0.88;;;9.10;65.20;;;;;;4980549;28;20395;-63
2022/12/29 03:38:23;;;;;;;1.55;0.80;;;9.10;65.40;;;;;;4981291;28;20158;-62
2022/12/29 03:40:52;;;;;;;1.05;0.95;;;9.10;65.20;;;;;;4981711;28;20506;-63
2022/12/29 03:43:18;;;;;;;2.63;1.10;;;9.20;65.70;;;;;;4979078;28;20086;-62
2022/12/29 03:45:44;;;;;;;1.75;0.90;;;9.20;65.80;;;;;;4981552;28;20497;-61
2022/12/29 03:48:09;;;;;;;2.25;0.95;;;9.20;65.80;;;;;;4978715;28;20046;-62
2022/12/29 03:50:35;;;;;;;1.02;0.90;;;9.20;66.60;;;;;;4977883;28;20066;-61
2022/12/29 03:53:00;;;;;;;1.00;0.82;;;9.20;65.70;;;;;;4978397;28;20122;-62
2022/12/29 03:55:26;;;;;;;1.77;0.93;;;9.20;65.70;;;;;;4976401;28;20031;-63
2022/12/29 03:57:52;;;;;;;2.00;0.88;;;9.20;65.70;;;;;;4971819;28;21669;-63
2022/12/29 04:00:17;;;;;;;1.10;0.88;;;9.20;65.80;;;;;;4974065;28;20038;-63
2022/12/29 04:02:43;;;;;;;1.23;0.80;;;9.20;65.90;;;;;;4972848;28;20260;-62
2022/12/29 04:05:08;;;;;;;1.55;0.90;;;9.20;65.90;;;;;;4979173;28;21694;-63
2022/12/29 04:07:34;;;;;;;1.02;0.82;;;9.30;66.00;;;;;;4971114;28;20044;-62
2022/12/29 04:09:59;;;;;;;0.90;0.90;;;9.20;66.00;;;;;;4971251;28;20889;-61
2022/12/29 04:12:25;;;;;;;2.58;1.00;;;9.20;66.00;;;;;;4964965;28;20042;-61
2022/12/29 04:14:51;;;;;;;1.33;1.00;;;9.30;66.10;;;;;;4974577;28;20034;-63
2022/12/29 04:17:16;;;;;;;1.45;1.05;;;9.20;65.90;;;;;;4975601;28;20367;-60
2022/12/29 04:19:42;;;;;;;1.30;0.98;;;9.20;66.00;;;;;;4976331;28;20081;-63
2022/12/29 04:22:07;;;;;;;1.58;0.98;;;9.20;66.00;;;;;;4976687;28;20099;-60
2022/12/29 04:24:33;;;;;;;1.20;1.00;;;9.20;66.10;;;;;;4976277;28;20308;-63
2022/12/29 04:26:58;;;;;;;1.30;1.00;;;9.20;66.00;;;;;;4975334;28;20031;-60
2022/12/29 04:29:24;;;;;;;1.25;0.80;;;9.20;66.10;;;;;;4977125;28;20042;-60
2022/12/29 04:31:50;;;;;;;1.23;0.90;;;9.20;66.40;;;;;;4978182;28;20526;-60
2022/12/29 04:34:15;;;;;;;2.80;0.80;;;9.20;66.30;;;;;;4977510;28;20049;-63
2022/12/29 04:36:41;;;;;;;1.50;0.90;;;9.20;66.30;;;;;;4979995;28;20034;-60
2022/12/29 04:39:07;;;;;;;2.38;1.00;;;9.20;66.30;;;;;;4982324;28;20049;-63
2022/12/29 04:41:33;;;;;;;1.88;1.10;;;9.10;66.30;;;;;;4978396;28;20046;-63
2022/12/29 04:43:58;;;;;;;1.55;0.90;;;9.10;66.40;;;;;;4980190;28;20517;-62
2022/12/29 04:46:24;;;;;;;1.83;0.90;;;9.10;66.40;;;;;;4977694;28;20138;-62
2022/12/29 04:48:49;;;;;;;104.50;27.75;;;9.20;66.60;;;;;;4980749;28;20042;-61
2022/12/29 04:51:15;;;;;;;16.42;6.25;;;9.20;66.50;;;;;;4975260;28;20110;-62
2022/12/29 04:53:41;;;;;;;8.57;4.13;;;9.10;66.50;;;;;;4977769;28;20058;-60
2022/12/29 04:56:06;;;;;;;3.28;2.22;;;9.10;66.50;;;;;;4976624;28;20062;-59
2022/12/29 04:58:32;;;;;;;1.90;1.10;;;9.10;66.60;;;;;;4983322;28;20472;-61
2022/12/29 05:00:58;;;;;;;1.00;0.88;;;9.10;66.70;;;;;;4980160;28;20081;-60
2022/12/29 05:03:23;;;;;;;1.38;1.08;;;9.10;66.90;;;;;;4985506;28;20038;-60
2022/12/29 05:05:49;;;;;;;1.25;1.00;;;9.10;67.00;;;;;;4978264;28;20061;-62
2022/12/29 05:08:15;;;;;;;1.45;0.90;;;9.10;67.10;;;;;;4982032;28;20048;-62
2022/12/29 05:10:45;;;;;;;1.48;1.10;;;9.10;67.20;;;;;;4978645;28;20114;-61
2022/12/29 05:13:10;;;;;;;1.58;0.70;;;9.00;67.10;;;;;;4974837;28;20054;-60
2022/12/29 05:15:36;;;;;;;2.15;1.10;;;9.10;67.40;;;;;;4979481;28;20787;-63
2022/12/29 05:18:01;;;;;;;1.58;1.10;;;9.10;67.60;;;;;;4979601;28;20097;-60
2022/12/29 05:20:27;;;;;;;1.20;1.00;;;9.10;67.60;;;;;;4983562;28;20034;-62
2022/12/29 05:22:53;;;;;;;1.67;1.08;;;9.00;67.60;;;;;;4978263;28;20096;-60
2022/12/29 05:25:21;;;;;;;1.10;1.00;;;9.00;67.80;;;;;;4980109;28;20038;-61
2022/12/29 05:27:47;;;;;;;1.83;1.17;;;9.00;67.90;;;;;;4975134;28;20426;-60
2022/12/29 05:30:12;;;;;;;2.70;1.17;;;9.00;68.10;;;;;;4979053;28;20434;-61
2022/12/29 05:32:38;;;;;;;1.60;1.13;;;9.00;68.20;;;;;;4976834;28;20038;-60
2022/12/29 05:35:04;;;;;;;1.52;1.02;;;8.90;68.30;;;;;;4977822;28;20042;-60
2022/12/29 05:37:33;;;;;;;1.23;0.80;;;8.90;68.30;;;;;;4980433;28;20037;-62
2022/12/29 05:39:59;;;;;;;5.60;1.25;;;8.90;68.40;;;;;;4978704;28;20851;-62
2022/12/29 05:42:24;;;;;;;1.38;1.20;;;9.00;68.60;;;;;;4975149;28;20031;-61
2022/12/29 05:44:53;;;;;;;2.55;1.20;;;9.00;68.60;;;;;;4976135;28;20042;-62
2022/12/29 05:47:19;;;;;;;2.15;1.20;;;9.00;68.60;;;;;;4977277;28;20575;-60
2022/12/29 05:49:44;;;;;;;3.33;1.60;;;9.00;68.70;;;;;;4974261;28;21842;-62
2022/12/29 05:52:10;;;;;;;3.67;1.63;;;9.00;68.80;;;;;;4974014;28;20145;-61
2022/12/29 05:54:36;;;;;;;1.60;1.50;;;9.00;68.80;;;;;;4979486;28;20030;-62
2022/12/29 05:57:02;;;;;;;2.72;1.85;;;9.00;68.80;;;;;;4974579;28;20073;-60
2022/12/29 05:59:27;;;;;;;2.00;1.90;;;9.00;68.80;;;;;;4976923;28;20640;-61
2022/12/29 06:01:56;;;;;;;2.60;2.40;;;9.00;68.90;;;;;;4968357;28;21905;-60
2022/12/29 06:04:21;;;;;;;3.85;3.40;;;9.00;68.90;;;;;;4975311;28;20042;-62
2022/12/29 06:06:47;;;;;;;2.30;2.08;;;9.00;69.90;;;;;;4975794;28;20410;-63
2022/12/29 06:09:13;;;;;;;3.30;3.00;;;9.00;69.00;;;;;;4980631;28;20038;-62
2022/12/29 06:11:38;;;;;;;2.25;2.00;;;9.00;69.00;;;;;;4972666;28;20502;-60
2022/12/29 06:14:04;;;;;;;2.60;1.50;;;9.00;69.10;;;;;;4976668;28;20061;-61
2022/12/29 06:16:29;;;;;;;3.15;1.92;;;8.90;69.00;;;;;;4976271;28;20070;-61
2022/12/29 06:18:55;;;;;;;3.72;2.00;;;8.90;69.10;;;;;;4975649;28;20088;-60
2022/12/29 06:21:20;;;;;;;3.78;2.03;;;8.90;69.20;;;;;;4973933;28;20053;-61
2022/12/29 06:23:46;;;;;;;4.10;2.28;;;8.80;69.30;;;;;;4981862;28;20525;-61
2022/12/29 06:26:11;;;;;;;2.67;1.80;;;8.80;69.40;;;;;;4978085;28;20046;-60
2022/12/29 06:28:37;;;;;;;3.10;1.80;;;8.70;69.50;;;;;;4977277;28;20057;-61
2022/12/29 06:31:03;;;;;;;1.73;1.33;;;8.70;69.70;;;;;;4964602;28;20057;-62
2022/12/29 06:33:29;;;;;;;1.90;1.45;;;8.70;69.90;;;;;;4980486;28;20033;-62
2022/12/29 06:35:54;;;;;;;2.70;1.30;;;8.60;70.00;;;;;;4978925;28;20425;-62
2022/12/29 06:38:20;;;;;;;3.55;1.40;;;8.60;70.40;;;;;;4979065;28;20035;-61
2022/12/29 06:40:46;;;;;;;2.88;2.33;;;8.50;70.60;;;;;;4978013;28;20042;-63
2022/12/29 06:43:11;;;;;;;2.50;1.70;;;8.60;71.10;;;;;;4980127;28;20078;-60
2022/12/29 06:45:40;;;;;;;2.72;1.50;;;8.60;71.70;;;;;;4980089;28;20517;-60
2022/12/29 06:48:06;;;;;;;3.15;1.50;;;8.60;71.60;;;;;;4981426;28;20113;-62
2022/12/29 06:50:32;;;;;;;3.08;1.60;;;8.60;71.80;;;;;;4975832;28;20043;-63
2022/12/29 06:52:58;;;;;;;1.80;1.27;;;8.60;71.90;;;;;;4979808;28;20553;-62
2022/12/29 06:55:23;;;;;;;2.50;1.30;;;8.60;72.00;;;;;;4985704;28;20049;-62
2022/12/29 06:57:49;;;;;;;1.95;1.45;;;8.70;72.10;;;;;;4981708;28;20045;-63
2022/12/29 07:00:15;;;;;;;2.88;1.88;;;8.70;72.10;;;;;;4974727;28;20500;-62
2022/12/29 07:02:40;;;;;;;1.88;1.50;;;8.80;72.10;;;;;;4979833;28;20042;-60
2022/12/29 07:05:08;;;;;;;2.75;1.33;;;8.80;72.10;;;;;;4978988;28;20049;-61
2022/12/29 07:07:34;;;;;;;2.10;1.40;;;8.80;72.00;;;;;;4984380;28;20030;-60
2022/12/29 07:09:59;;;;;;;3.45;1.77;;;8.90;72.00;;;;;;4984808;28;20080;-61
2022/12/29 07:12:25;;;;;;;4.38;1.60;;;9.00;72.00;;;;;;4975691;28;20316;-62
2022/12/29 07:14:51;;;;;;;3.25;1.40;;;9.00;71.90;;;;;;4984437;28;20041;-60
2022/12/29 07:17:19;;;;;;;1.98;1.63;;;9.00;71.80;;;;;;4980093;28;20164;-61
2022/12/29 07:19:45;;;;;;;3.97;1.90;;;9.10;71.80;;;;;;4979171;28;20485;-62
2022/12/29 07:22:10;;;;;;;2.88;1.70;;;9.10;71.60;;;;;;4976979;28;20045;-62
2022/12/29 07:24:36;;;;;;;2.15;1.65;;;9.10;71.60;;;;;;4979692;28;20038;-62
2022/12/29 07:27:02;;;;;;;1.85;1.50;;;9.10;71.50;;;;;;4980396;28;20030;-62
2022/12/29 07:29:27;;;;;;;2.92;1.80;;;9.10;71.40;;;;;;4982983;28;20030;-61
2022/12/29 07:31:53;;;;;;;2.67;1.65;;;9.10;71.30;;;;;;4983678;28;20041;-61
2022/12/29 07:34:18;;;;;;;4.13;1.73;;;9.10;71.30;;;;;;4983157;28;20084;-62
2022/12/29 07:36:44;;;;;;;3.20;1.88;;;9.10;71.30;;;;;;4983393;28;20126;-63
2022/12/29 07:39:09;;;;;;;3.53;2.00;;;9.10;71.40;;;;;;4984451;28;20035;-62
2022/12/29 07:41:35;;;;;;;2.60;1.60;;;9.10;71.40;;;;;;4980251;28;20034;-62
2022/12/29 07:44:00;;;;;;;3.45;1.70;;;9.00;71.30;;;;;;4980477;28;20053;-61
2022/12/29 07:46:27;;;;;;;2.85;1.75;;;9.10;71.30;;;;;;4963666;28;20045;-62
2022/12/29 07:48:55;;;;;;;5.30;3.40;;;9.00;71.30;;;;;;4957509;28;20114;-62
2022/12/29 07:51:21;;;;;;;3.38;2.25;;;9.00;71.40;;;;;;4955261;28;20058;-60
2022/12/29 07:53:46;;;;;;;4.95;2.00;;;9.00;71.40;;;;;;4950187;28;20050;-63
2022/12/29 07:56:12;;;;;;;2.95;2.08;;;9.00;71.30;;;;;;4957838;28;20037;-63
2022/12/29 07:58:37;;;;;;;5.65;2.47;;;9.10;71.40;;;;;;4964875;28;20098;-63
2022/12/29 08:01:03;;;;;;;4.15;2.35;;;9.10;71.40;;;;;;4970572;28;20049;-62
2022/12/29 08:03:29;;;;;;;3.03;2.10;;;9.10;71.40;;;;;;4971302;28;20410;-61
2022/12/29 08:05:56;;;;;;;4.07;2.40;;;9.20;71.40;;;;;;4973178;28;20118;-62
2022/12/29 08:08:21;;;;;;;2.42;1.92;;;9.20;71.40;;;;;;4972779;28;20463;-62
2022/12/29 08:10:47;;;;;;;3.47;2.00;;;9.20;71.30;;;;;;4971137;28;20055;-61
2022/12/29 08:13:13;;;;;;;2.08;1.65;;;9.20;71.20;;;;;;4969127;28;20034;-62
2022/12/29 08:15:38;;;;;;;2.20;1.70;;;9.30;71.30;;;;;;4971898;28;20045;-63
2022/12/29 08:18:04;;;;;;;1.85;1.70;;;9.30;71.20;;;;;;4970134;28;20414;-63
2022/12/29 08:20:30;;;;;;;3.22;2.03;;;9.40;71.20;;;;;;4967389;28;20073;-62
2022/12/29 08:22:56;;;;;;;4.28;1.48;;;9.40;71.10;;;;;;4967544;28;20121;-62
2022/12/29 08:25:21;;;;;;;4.03;1.55;;;9.40;71.20;;;;;;4970012;28;20039;-63
2022/12/29 08:27:47;;;;;;;2.03;1.58;;;9.40;71.10;;;;;;4967755;28;20133;-63
2022/12/29 08:30:13;;;;;;;2.20;1.48;;;9.50;71.30;;;;;;4964749;28;20534;-61
2022/12/29 08:32:38;;;;;;;2.70;1.50;;;9.50;71.20;;;;;;4967949;28;20133;-61
2022/12/29 08:35:04;;;;;;;2.97;1.50;;;9.50;71.20;;;;;;4973553;28;20053;-60
2022/12/29 08:37:31;;;;;;;2.10;1.63;;;9.60;72.10;;;;;;4970355;28;20031;-63
2022/12/29 08:39:58;;;;;;;3.05;1.45;;;9.60;71.20;;;;;;4975349;28;20045;-62
2022/12/29 08:42:28;;;;;;;2.75;1.50;;;9.60;71.20;;;;;;4967484;28;20662;-60
2022/12/29 08:44:54;;;;;;;3.75;1.83;;;9.70;71.30;;;;;;4973931;28;20058;-63
2022/12/29 08:47:19;;;;;;;2.47;1.50;;;9.80;71.20;;;;;;4975163;28;20125;-60
2022/12/29 08:49:45;;;;;;;3.17;1.60;;;9.80;70.40;;;;;;4972508;28;20045;-61
2022/12/29 08:52:10;;;;;;;2.60;1.50;;;9.90;71.10;;;;;;4969877;28;21328;-60
2022/12/29 08:54:36;;;;;;;3.45;1.50;;;9.90;71.10;;;;;;4969945;28;20038;-60
2022/12/29 08:57:02;;;;;;;4.50;1.45;;;9.90;71.10;;;;;;4974792;28;20073;-63
2022/12/29 08:59:27;;;;;;;2.03;1.48;;;10.00;71.10;;;;;;4978852;28;20062;-62
2022/12/29 09:01:55;;;;;;;3.10;1.40;;;10.00;71.00;;;;;;4965153;28;20807;-62
2022/12/29 09:04:20;;;;;;;2.92;1.80;;;10.10;71.10;;;;;;4975680;28;20042;-63
2022/12/29 09:06:46;;;;;;;2.17;1.70;;;10.20;71.20;;;;;;4974142;28;20073;-60
2022/12/29 09:09:12;;;;;;;3.70;1.90;;;10.20;71.20;;;;;;4971311;28;20042;-63
2022/12/29 09:11:38;;;;;;;2.40;1.60;;;10.20;71.30;;;;;;4968248;28;20045;-62
2022/12/29 09:14:04;;;;;;;4.45;1.90;;;10.20;71.10;;;;;;4972529;28;20079;-63
2022/12/29 09:16:29;;;;;;;7.65;1.63;;;10.30;71.10;;;;;;4972683;28;20641;-60
2022/12/29 09:18:55;;;;;;;2.58;1.55;;;10.30;71.00;;;;;;4976857;28;20046;-61
2022/12/29 09:21:21;;;;;;;2.75;1.88;;;10.40;70.90;;;;;;4981631;28;20346;-62
2022/12/29 09:23:47;;;;;;;3.45;1.58;;;10.40;70.70;;;;;;4974760;28;20035;-61
2022/12/29 09:26:13;;;;;;;3.58;1.70;;;10.50;70.70;;;;;;4977124;28;20069;-62
2022/12/29 09:28:40;;;;;;;2.83;1.67;;;10.50;70.70;;;;;;4966731;28;20410;-60
2022/12/29 09:31:05;;;;;;;2.58;1.85;;;10.50;70.60;;;;;;4971910;28;20446;-63
2022/12/29 09:33:33;;;;;;;2.60;1.85;;;10.50;70.40;;;;;;4980963;28;20038;-63
2022/12/29 09:35:58;;;;;;;2.78;1.67;;;10.60;70.50;;;;;;4979264;28;20042;-60
2022/12/29 09:38:26;;;;;;;1.70;1.40;;;10.60;70.40;;;;;;4982700;28;20038;-60
2022/12/29 09:40:55;;;;;;;1.83;1.40;;;10.60;70.00;;;;;;4978240;28;20513;-61
2022/12/29 09:43:42;;;;;;;2.22;1.40;;;10.70;70.00;;;;;;4982174;28;20098;-62
2022/12/29 09:46:23;;;;;;;2.55;1.60;;;10.80;70.00;;;;;;4976904;28;20038;-62
2022/12/29 09:49:06;;;;;;;2.83;1.50;;;10.90;69.60;;;;;;4973342;28;20066;-62
2022/12/29 09:51:34;;;;;;;3.10;0.88;;;10.90;69.60;;;;;;4966056;28;20635;-61
2022/12/29 09:54:39;;;;;;;1.67;1.20;;;11.00;69.50;;;;;;4968441;28;20053;-61
2022/12/29 09:57:13;;;;;;;2.22;1.30;;;11.10;68.70;;;;;;4976414;28;20042;-63
2022/12/29 09:59:41;;;;;;;2.05;1.23;;;11.10;68.80;;;;;;4978579;28;20085;-60
2022/12/29 10:02:30;;;;;;;1.73;1.20;;;11.20;68.50;;;;;;4972716;28;20522;-60
2022/12/29 10:04:56;;;;;;;2.33;1.20;;;11.20;68.10;;;;;;4969513;28;20034;-63
2022/12/29 10:07:45;;;;;;;3.20;1.42;;;11.30;68.40;;;;;;4977042;28;20053;-61
2022/12/29 10:10:30;;;;;;;2.42;1.20;;;11.30;67.60;;;;;;4979700;28;20038;-62
2022/12/29 10:13:17;;;;;;;2.53;1.45;;;11.40;67.60;;;;;;4973499;28;20030;-61
2022/12/29 10:15:59;;;;;;;10.98;4.93;;;11.40;67.70;;;;;;4978775;28;20062;-63
2022/12/29 10:18:49;;;;;;;4.97;3.33;;;11.50;67.60;;;;;;4969034;28;20107;-62
2022/12/29 10:21:43;;;;;;;4.35;2.25;;;11.50;68.00;;;;;;4975520;28;20122;-61
2022/12/29 10:24:12;;;;;;;2.17;1.50;;;11.60;67.40;;;;;;4979416;28;20138;-63
2022/12/29 10:26:45;;;;;;;3.60;1.33;;;11.70;67.70;;;;;;4979526;28;20144;-61
2022/12/29 10:29:16;;;;;;;2.80;1.52;;;11.80;67.60;;;;;;4981090;28;20093;-64
2022/12/29 10:31:47;;;;;;;2.65;1.35;;;11.80;67.50;;;;;;4976991;28;20576;-59
2022/12/29 10:34:49;;;;;;;3.22;1.13;;;11.80;67.40;;;;;;4980740;28;20065;-61
2022/12/29 10:37:25;;;;;;;2.75;1.30;;;11.90;67.10;;;;;;4939626;28;20456;-61
2022/12/29 10:39:53;;;;;;;2.75;1.20;;;12.00;67.20;;;;;;4979120;28;20402;-60
2022/12/29 10:42:28;;;;;;;2.42;1.40;;;12.10;67.40;;;;;;4979668;28;20038;-61
2022/12/29 10:44:56;;;;;;;1.75;1.30;;;12.10;67.40;;;;;;4981945;28;20520;-61
2022/12/29 10:47:29;;;;;;;2.60;1.67;;;12.10;67.10;;;;;;4975070;28;20374;-63
2022/12/29 10:49:58;;;;;;;3.28;1.30;;;12.20;66.40;;;;;;4981335;28;20177;-62
2022/12/29 10:52:25;;;;;;;3.63;1.30;;;12.20;66.40;;;;;;4973615;28;20050;-61
2022/12/29 10:55:01;;;;;;;4.03;1.40;;;12.20;66.20;;;;;;4981036;28;20039;-59
2022/12/29 10:57:40;;;;;;;2.28;1.17;;;12.30;67.30;;;;;;4974622;28;21245;-63
2022/12/29 11:00:15;;;;;;;1.80;1.50;;;12.30;66.20;;;;;;4984149;28;20054;-62
2022/12/29 11:03:07;;;;;;;4.47;1.42;;;12.30;66.00;;;;;;4982400;28;20104;-63
2022/12/29 11:05:41;;;;;;;2.53;1.60;;;12.30;66.00;;;;;;4983942;28;20045;-63
2022/12/29 11:08:17;;;;;;;3.22;1.73;;;12.30;66.60;;;;;;4979076;28;20035;-62
2022/12/29 11:10:46;;;;;;;2.33;1.35;;;12.40;66.30;;;;;;4976707;28;20515;-60
2022/12/29 11:13:14;;;;;;;3.13;1.25;;;12.40;66.60;;;;;;4973435;28;20046;-62
2022/12/29 11:15:48;;;;;;;2.17;1.30;;;12.40;66.40;;;;;;4979522;28;20022;-62
2022/12/29 11:18:46;;;;;;;1.40;1.00;;;12.40;66.20;;;;;;4983005;28;20041;-62
2022/12/29 11:21:39;;;;;;;3.28;1.10;;;12.50;66.00;;;;;;4961954;28;20038;-63
2022/12/29 11:24:18;;;;;;;2.70;1.13;;;12.50;65.90;;;;;;4984492;28;20018;-62
2022/12/29 11:26:44;;;;;;;4.32;1.55;;;12.50;66.30;;;;;;4984240;28;20030;-63
2022/12/29 11:29:16;;;;;;;4.10;1.30;;;12.50;66.10;;;;;;4985463;28;20027;-63
2022/12/29 11:31:46;;;;;;;3.08;1.15;;;12.50;65.80;;;;;;4985130;28;20544;-62
2022/12/29 11:34:41;;;;;;;2.78;1.10;;;12.50;66.00;;;;;;4983949;28;20040;-62
2022/12/29 11:37:13;;;;;;;3.28;1.20;;;12.50;65.60;;;;;;4972422;28;20046;-61
2022/12/29 11:40:07;;;;;;;2.78;1.20;;;12.60;66.00;;;;;;4981306;28;20027;-64
2022/12/29 11:42:56;;;;;;;3.70;1.30;;;12.60;65.70;;;;;;4976881;28;20034;-61
2022/12/29 11:45:25;;;;;;;3.85;1.35;;;12.60;65.70;;;;;;4975534;28;20064;-63
2022/12/29 11:47:57;;;;;;;2.03;1.17;;;12.60;66.20;;;;;;4977613;28;20047;-62
2022/12/29 11:50:32;;;;;;;2.70;1.10;;;12.60;66.00;;;;;;4983720;28;20073;-61
2022/12/29 11:53:13;;;;;;;2.28;1.02;;;12.60;66.00;;;;;;4977229;28;20506;-60
2022/12/29 11:55:39;;;;;;;2.05;1.10;;;12.60;66.10;;;;;;4973721;28;20042;-61
2022/12/29 11:58:06;;;;;;;2.72;1.13;;;12.60;66.20;;;;;;4980115;28;20027;-63
2022/12/29 12:00:35;;;;;;;3.35;1.40;;;12.70;66.30;;;;;;4974439;28;20117;-59
2022/12/29 12:03:28;;;;;;;2.22;1.40;;;12.70;66.00;;;;;;4975558;28;20062;-61
2022/12/29 12:05:57;;;;;;;5.93;2.95;;;12.70;65.70;;;;;;4978139;28;20039;-63
2022/12/29 12:08:41;;;;;;;5.82;3.35;;;12.70;66.00;;;;;;4980220;28;20346;-61
2022/12/29 12:11:12;;;;;;;6.40;1.58;;;12.70;65.50;;;;;;4976332;28;20133;-60
2022/12/29 12:13:55;;;;;;;2.88;1.30;;;12.80;65.80;;;;;;4986343;28;20045;-61
2022/12/29 12:16:44;;;;;;;3.58;1.23;;;12.80;65.70;;;;;;4968586;28;20039;-60
2022/12/29 12:19:13;;;;;;;1.17;0.90;;;12.80;65.70;;;;;;4980309;28;20474;-62
2022/12/29 12:21:40;;;;;;;1.83;0.90;;;12.80;65.90;;;;;;4978350;28;20133;-62
2022/12/29 12:24:35;;;;;;;2.72;1.33;;;12.80;66.00;;;;;;4982205;28;20133;-63
2022/12/29 12:27:20;;;;;;;3.05;1.40;;;12.80;65.70;;;;;;4984397;28;20060;-63
2022/12/29 12:29:48;;;;;;;2.90;1.40;;;12.80;66.10;;;;;;4979489;28;20113;-62
2022/12/29 12:32:25;;;;;;;3.33;1.20;;;12.90;66.00;;;;;;4980888;28;20037;-61
2022/12/29 12:34:51;;;;;;;4.68;1.13;;;12.90;66.00;;;;;;4984410;28;20039;-62
2022/12/29 12:37:45;;;;;;;2.90;1.10;;;12.90;66.20;;;;;;4978310;28;20105;-63
2022/12/29 12:40:34;;;;;;;2.08;1.20;;;12.90;65.90;;;;;;4984350;28;20091;-62
2022/12/29 12:43:32;;;;;;;3.05;1.80;;;12.90;65.70;;;;;;4986306;28;20549;-61
2022/12/29 12:46:19;;;;;;;4.53;1.55;;;12.90;66.10;;;;;;4930697;28;20039;-61
2022/12/29 12:48:47;;;;;;;2.08;1.10;;;12.90;66.00;;;;;;4981871;28;20108;-62
2022/12/29 12:51:25;;;;;;;1.65;1.00;;;12.90;66.10;;;;;;4983770;28;20046;-62
2022/12/29 12:54:24;;;;;;;1.65;1.02;;;12.90;66.10;;;;;;4980308;28;20069;-60
2022/12/29 12:57:33;;;;;;;1.27;1.00;;;12.90;65.90;;;;;;4981048;28;20528;-62
2022/12/29 13:00:17;;;;;;;2.70;0.88;;;12.90;65.80;;;;;;4981878;28;20046;-61
2022/12/29 13:03:07;;;;;;;1.98;0.90;;;12.90;66.00;;;;;;4979561;28;20379;-63
2022/12/29 13:05:33;;;;;;;2.55;0.90;;;12.90;65.90;;;;;;4983582;28;20191;-61
2022/12/29 13:08:23;;;;;;;2.38;1.08;;;12.90;66.30;;;;;;4983274;28;20123;-62
2022/12/29 13:10:51;;;;;;;3.10;1.10;;;12.90;65.90;;;;;;4971327;28;20062;-63
2022/12/29 13:13:35;;;;;;;2.60;0.90;;;12.90;66.10;;;;;;4975705;28;20122;-62
2022/12/29 13:16:21;;;;;;;1.77;0.90;;;12.90;66.00;;;;;;4975899;28;20049;-61
2022/12/29 13:19:13;;;;;;;1.30;0.90;;;12.90;66.10;;;;;;4980458;28;20062;-61
2022/12/29 13:22:10;;;;;;;1.13;0.90;;;12.90;65.90;;;;;;4955737;28;20042;-63
2022/12/29 13:25:02;;;;;;;3.78;0.85;;;13.00;65.90;;;;;;4978198;28;20042;-60
2022/12/29 13:27:45;;;;;;;2.25;0.77;;;13.00;66.20;;;;;;4963652;28;20506;-61
2022/12/29 13:30:18;;;;;;;1.30;0.75;;;12.90;66.00;;;;;;4983471;28;20136;-63
2022/12/29 13:33:08;;;;;;;1.33;1.00;;;13.00;66.00;;;;;;4983022;28;20502;-62
2022/12/29 13:35:34;;;;;;;1.35;0.80;;;13.00;66.10;;;;;;4981693;28;20043;-60
2022/12/29 13:38:29;;;;;;;1.65;0.80;;;13.00;66.20;;;;;;4961003;28;20402;-62
2022/12/29 13:41:12;;;;;;;2.28;0.75;;;13.00;65.90;;;;;;4940653;28;20577;-62
2022/12/29 13:43:46;;;;;;;1.65;0.88;;;13.00;65.90;;;;;;4978373;28;20073;-61
2022/12/29 13:46:37;;;;;;;1.90;0.80;;;13.00;66.20;;;;;;4980093;28;20401;-61
2022/12/29 13:49:29;;;;;;;2.47;0.98;;;13.00;66.10;;;;;;4980453;28;20417;-63
2022/12/29 13:52:05;;;;;;;1.75;1.20;;;13.00;66.10;;;;;;4980683;28;20042;-61